Time;durP1;ratioP1;P1;durP2;ratioP2;P2;SDS_P1;SDS_P2;PMS_P1;PMS_P2;Temp;Humidity;BMP_temperature;BMP_pressure;BME280_temperature;BME280_humidity;BME280_pressure;Samples;Min_cycle;Max_cycle;Signal;HPM_P1;HPM_P2
2021/06/22 00:00:18;;;;;;;0.40;0.30;;;18.00;99.90;;;;;;4974809;28;20412;-80
2021/06/22 00:02:44;;;;;;;0.40;0.30;;;18.00;99.90;;;;;;4956003;28;20915;-79
2021/06/22 00:05:10;;;;;;;0.40;0.20;;;18.10;99.90;;;;;;4974312;28;20396;-80
2021/06/22 00:07:36;;;;;;;0.40;0.30;;;18.00;99.90;;;;;;4973478;28;20400;-79
2021/06/22 00:10:04;;;;;;;0.40;0.30;;;17.90;99.90;;;;;;4974320;28;20391;-81
2021/06/22 00:12:30;;;;;;;0.40;0.20;;;17.90;99.90;;;;;;4986624;28;20784;-82
2021/06/22 00:14:56;;;;;;;0.40;0.30;;;17.80;99.90;;;;;;4960552;28;20422;-80
2021/06/22 00:17:21;;;;;;;0.40;0.30;;;17.80;99.90;;;;;;4953728;29;20961;-78
2021/06/22 00:19:47;;;;;;;0.40;0.30;;;17.80;99.90;;;;;;4954294;29;20418;-79
2021/06/22 00:22:14;;;;;;;0.40;0.20;;;17.80;99.90;;;;;;4954532;29;20430;-80
2021/06/22 00:24:39;;;;;;;0.40;0.20;;;17.90;99.90;;;;;;4953948;28;20406;-80
2021/06/22 00:27:05;;;;;;;0.40;0.30;;;17.90;99.90;;;;;;4954920;29;20842;-80
2021/06/22 00:29:31;;;;;;;0.40;0.20;;;17.90;99.90;;;;;;4954559;28;20408;-80
2021/06/22 00:31:56;;;;;;;0.40;0.20;;;17.70;99.90;;;;;;4954346;28;20456;-80
2021/06/22 00:34:22;;;;;;;0.40;0.20;;;17.80;99.90;;;;;;4954707;29;20839;-80
2021/06/22 00:36:48;;;;;;;0.40;0.20;;;17.80;99.90;;;;;;4968923;28;20405;-81
2021/06/22 00:39:13;;;;;;;0.40;0.30;;;17.70;99.90;;;;;;4954374;29;20409;-81
2021/06/22 00:41:39;;;;;;;0.40;0.30;;;17.40;99.90;;;;;;4954002;29;20390;-80
2021/06/22 00:44:06;;;;;;;0.40;0.30;;;17.50;99.90;;;;;;4954696;29;20509;-80
2021/06/22 00:46:33;;;;;;;0.40;0.20;;;17.40;99.90;;;;;;4954347;28;20398;-80
2021/06/22 00:48:59;;;;;;;0.40;0.20;;;17.30;99.90;;;;;;4954664;28;20390;-80
2021/06/22 00:51:24;;;;;;;0.40;0.30;;;17.20;99.90;;;;;;4954914;29;20390;-80
2021/06/22 00:53:50;;;;;;;0.40;0.20;;;17.10;99.90;;;;;;4953901;29;20409;-80
2021/06/22 00:56:16;;;;;;;0.40;0.30;;;17.20;99.90;;;;;;4954539;29;20382;-80
2021/06/22 00:58:45;;;;;;;0.40;0.30;;;17.20;99.90;;;;;;4954136;29;20394;-80
2021/06/22 01:01:16;;;;;;;0.40;0.20;;;17.10;99.90;;;;;;4953019;29;20436;-80
2021/06/22 01:03:42;;;;;;;0.40;0.20;;;17.10;99.90;;;;;;4953502;28;20442;-79
2021/06/22 01:06:10;;;;;;;0.40;0.20;;;17.10;99.90;;;;;;4954461;29;20422;-79
2021/06/22 01:08:36;;;;;;;0.40;0.20;;;17.10;99.90;;;;;;4953397;28;20398;-78
2021/06/22 01:11:02;;;;;;;0.40;0.20;;;17.20;99.90;;;;;;4954368;28;20413;-78
2021/06/22 01:13:28;;;;;;;0.40;0.20;;;17.20;99.90;;;;;;4973189;28;20427;-79
2021/06/22 01:15:53;;;;;;;0.40;0.20;;;17.20;99.90;;;;;;4973470;28;20476;-79
2021/06/22 01:18:19;;;;;;;0.40;0.30;;;17.10;99.90;;;;;;4973117;28;20869;-80
2021/06/22 01:20:45;;;;;;;0.40;0.30;;;17.20;99.90;;;;;;4972181;28;20427;-79
2021/06/22 01:23:10;;;;;;;0.40;0.20;;;17.20;99.90;;;;;;4973071;28;20950;-79
2021/06/22 01:25:36;;;;;;;0.40;0.30;;;17.30;99.90;;;;;;4972095;28;20407;-80
2021/06/22 01:28:02;;;;;;;0.40;0.20;;;17.20;99.90;;;;;;4973010;28;20407;-79
2021/06/22 01:30:30;;;;;;;0.40;0.20;;;17.30;99.90;;;;;;4972872;28;20396;-80
2021/06/22 01:32:57;;;;;;;0.40;0.20;;;17.30;99.90;;;;;;4972118;28;20396;-80
2021/06/22 01:35:24;;;;;;;0.40;0.20;;;17.20;99.90;;;;;;4972897;28;20472;-80
2021/06/22 01:38:19;;;;;;;0.40;0.20;;;17.20;99.90;;;;;;4972289;28;20389;-80
2021/06/22 01:40:50;;;;;;;0.40;0.20;;;17.20;99.90;;;;;;4951103;28;20424;-80
2021/06/22 01:43:16;;;;;;;0.40;0.20;;;17.20;99.90;;;;;;4972760;28;20824;-80
2021/06/22 01:45:42;;;;;;;0.40;0.20;;;17.20;99.90;;;;;;4971700;28;20403;-80
2021/06/22 01:48:08;;;;;;;0.40;0.30;;;17.20;99.90;;;;;;4972211;28;20919;-80
2021/06/22 01:50:33;;;;;;;0.40;0.30;;;17.10;99.90;;;;;;4972485;28;20388;-80
2021/06/22 01:52:59;;;;;;;0.40;0.30;;;17.10;99.90;;;;;;4972166;28;20860;-80
2021/06/22 01:55:36;;;;;;;0.40;0.30;;;17.20;99.90;;;;;;4987258;28;20462;-80
2021/06/22 01:58:03;;;;;;;0.40;0.30;;;17.20;99.90;;;;;;4971902;28;20426;-80
2021/06/22 02:00:29;;;;;;;0.40;0.20;;;17.10;99.90;;;;;;4972410;28;20440;-80
2021/06/22 02:02:54;;;;;;;0.40;0.20;;;17.10;99.90;;;;;;4971736;28;20421;-80
2021/06/22 02:05:20;;;;;;;0.40;0.30;;;17.00;99.90;;;;;;4972220;28;20380;-80
2021/06/22 02:07:46;;;;;;;0.40;0.20;;;16.90;99.90;;;;;;4971553;28;20420;-80
2021/06/22 02:10:12;;;;;;;0.40;0.30;;;17.00;99.90;;;;;;4972232;28;20462;-80
2021/06/22 02:12:37;;;;;;;0.40;0.30;;;16.90;99.90;;;;;;4984755;28;20742;-80
2021/06/22 02:15:05;;;;;;;0.40;0.20;;;16.90;99.90;;;;;;4983452;28;20426;-80
2021/06/22 02:17:31;;;;;;;0.40;0.30;;;16.90;99.90;;;;;;4972296;28;20495;-80
2021/06/22 02:19:58;;;;;;;0.40;0.20;;;17.00;99.90;;;;;;4971301;28;20497;-80
2021/06/22 02:22:23;;;;;;;0.40;0.20;;;16.90;99.90;;;;;;4972078;28;20388;-80
2021/06/22 02:24:49;;;;;;;0.40;0.20;;;16.90;99.90;;;;;;4986180;28;20507;-80
2021/06/22 02:27:26;;;;;;;0.40;0.20;;;16.90;99.90;;;;;;4971996;28;20400;-80
2021/06/22 02:29:51;;;;;;;0.40;0.20;;;16.90;99.90;;;;;;4971194;28;20503;-80
2021/06/22 02:32:17;;;;;;;0.40;0.30;;;16.90;99.90;;;;;;4971769;28;20832;-80
2021/06/22 02:34:43;;;;;;;0.40;0.30;;;17.00;99.90;;;;;;4971115;28;20395;-80
2021/06/22 02:37:09;;;;;;;0.40;0.20;;;17.00;99.90;;;;;;4971550;28;20471;-80
2021/06/22 02:39:34;;;;;;;0.40;0.20;;;17.00;99.90;;;;;;4971144;28;20416;-80
2021/06/22 02:42:00;;;;;;;0.40;0.20;;;16.90;99.90;;;;;;4986035;28;20788;-80
2021/06/22 02:44:26;;;;;;;0.40;0.20;;;17.00;99.90;;;;;;4972064;28;20406;-80
2021/06/22 02:46:51;;;;;;;0.40;0.30;;;17.10;99.90;;;;;;4970741;28;20426;-80
2021/06/22 02:49:17;;;;;;;0.40;0.20;;;17.00;99.90;;;;;;4971729;28;20404;-79
2021/06/22 02:51:42;;;;;;;0.40;0.30;;;16.90;99.90;;;;;;4953893;28;20392;-79
2021/06/22 02:54:08;;;;;;;0.40;0.20;;;16.90;99.90;;;;;;4972034;28;20396;-80
2021/06/22 02:56:34;;;;;;;0.40;0.20;;;16.80;99.90;;;;;;4971227;28;20392;-80
2021/06/22 02:58:59;;;;;;;0.40;0.20;;;16.80;99.90;;;;;;4970540;28;20411;-80
2021/06/22 03:01:25;;;;;;;0.40;0.30;;;16.80;99.90;;;;;;4971536;28;20916;-80
2021/06/22 03:03:51;;;;;;;0.40;0.20;;;16.80;99.90;;;;;;4971073;28;20519;-80
2021/06/22 03:06:16;;;;;;;0.40;0.20;;;16.60;99.90;;;;;;4971746;28;20485;-80
2021/06/22 03:08:42;;;;;;;0.40;0.30;;;16.80;99.90;;;;;;4970715;28;20392;-80
2021/06/22 03:11:08;;;;;;;0.40;0.20;;;17.00;99.90;;;;;;4972763;28;20721;-80
2021/06/22 03:13:33;;;;;;;0.40;0.20;;;16.90;99.90;;;;;;4990856;28;20402;-79
2021/06/22 03:15:59;;;;;;;0.40;0.30;;;17.00;99.90;;;;;;4975929;28;20495;-80
2021/06/22 03:18:25;;;;;;;0.40;0.30;;;16.90;99.90;;;;;;4971029;28;20499;-80
2021/06/22 03:20:50;;;;;;;0.40;0.20;;;16.80;99.90;;;;;;4970816;28;20864;-80
2021/06/22 03:23:16;;;;;;;0.40;0.30;;;16.90;99.90;;;;;;4970811;28;21440;-80
2021/06/22 03:25:42;;;;;;;0.40;0.20;;;16.80;99.90;;;;;;4971143;28;20400;-80
2021/06/22 03:28:08;;;;;;;0.40;0.20;;;16.70;99.90;;;;;;4971455;28;20396;-80
2021/06/22 03:30:34;;;;;;;0.40;0.20;;;16.80;99.90;;;;;;4971241;28;20378;-80
2021/06/22 03:33:00;;;;;;;0.40;0.20;;;16.70;99.90;;;;;;4970540;28;20499;-80
2021/06/22 03:35:29;;;;;;;0.40;0.20;;;16.70;99.90;;;;;;4971084;28;20427;-80
2021/06/22 03:37:55;;;;;;;0.40;0.30;;;16.80;99.90;;;;;;4970316;28;20407;-80
2021/06/22 03:40:21;;;;;;;0.40;0.20;;;16.80;99.90;;;;;;4971133;28;20498;-80
2021/06/22 03:42:48;;;;;;;0.40;0.20;;;16.70;99.90;;;;;;4970386;28;20436;-80
2021/06/22 03:45:14;;;;;;;0.40;0.20;;;16.70;99.90;;;;;;4970628;28;20900;-80
2021/06/22 03:47:41;;;;;;;0.40;0.20;;;16.70;99.90;;;;;;4971085;28;20499;-80
2021/06/22 03:50:08;;;;;;;0.40;0.20;;;16.60;99.90;;;;;;4970858;28;20404;-80
2021/06/22 03:52:34;;;;;;;0.40;0.20;;;16.60;99.90;;;;;;4956921;28;20829;-80
2021/06/22 03:54:59;;;;;;;0.40;0.30;;;16.70;99.90;;;;;;4973893;28;20475;-80
2021/06/22 03:57:25;;;;;;;0.40;0.20;;;16.70;99.90;;;;;;4974822;28;20495;-80
2021/06/22 03:59:51;;;;;;;0.40;0.20;;;16.70;99.90;;;;;;4973520;28;20940;-80
2021/06/22 04:02:18;;;;;;;0.40;0.30;;;16.70;99.90;;;;;;4957941;28;20444;-80
2021/06/22 04:04:44;;;;;;;0.40;0.30;;;16.80;99.90;;;;;;4974461;28;20396;-80
2021/06/22 04:07:10;;;;;;;0.40;0.20;;;16.80;99.90;;;;;;4975132;28;20397;-79
2021/06/22 04:09:35;;;;;;;0.40;0.20;;;16.70;99.90;;;;;;4974811;28;20876;-79
2021/06/22 04:12:01;;;;;;;0.40;0.20;;;16.60;99.90;;;;;;4976289;28;20410;-79
2021/06/22 04:14:27;;;;;;;0.40;0.30;;;16.70;99.90;;;;;;4974480;28;20424;-80
2021/06/22 04:16:53;;;;;;;0.40;0.30;;;16.70;99.90;;;;;;4974152;28;20396;-80
2021/06/22 04:19:18;;;;;;;0.40;0.20;;;16.70;99.90;;;;;;4974328;28;20397;-80
2021/06/22 04:21:44;;;;;;;0.40;0.30;;;16.70;99.90;;;;;;4974508;28;20748;-80
2021/06/22 04:24:10;;;;;;;0.40;0.30;;;16.90;99.90;;;;;;4974645;28;20400;-80
2021/06/22 04:26:36;;;;;;;0.40;0.20;;;16.80;99.90;;;;;;4974390;28;20399;-80
2021/06/22 04:29:03;;;;;;;0.40;0.20;;;16.70;99.90;;;;;;4973597;28;20860;-80
2021/06/22 04:31:29;;;;;;;0.40;0.30;;;16.70;99.90;;;;;;4974902;28;20381;-80
2021/06/22 04:33:54;;;;;;;0.40;0.20;;;16.80;99.90;;;;;;4956210;28;20414;-81
2021/06/22 04:36:20;;;;;;;0.40;0.30;;;16.80;99.90;;;;;;4974718;28;20479;-80
2021/06/22 04:38:46;;;;;;;0.40;0.20;;;16.80;99.90;;;;;;4974208;28;20384;-81
2021/06/22 04:41:11;;;;;;;0.40;0.20;;;16.90;99.90;;;;;;4973879;28;20899;-80
2021/06/22 04:43:37;;;;;;;0.40;0.20;;;16.90;99.90;;;;;;4973661;28;20951;-80
2021/06/22 04:46:03;;;;;;;0.40;0.20;;;17.00;99.90;;;;;;4973164;28;20404;-80
2021/06/22 04:48:28;;;;;;;0.40;0.20;;;17.10;99.90;;;;;;4989120;28;20416;-80
2021/06/22 04:50:58;;;;;;;0.40;0.30;;;17.10;99.90;;;;;;4973134;28;20400;-81
2021/06/22 04:53:25;;;;;;;0.40;0.20;;;17.10;99.90;;;;;;4974014;28;20428;-81
2021/06/22 04:55:51;;;;;;;0.40;0.20;;;17.10;99.90;;;;;;4973661;28;20396;-82
2021/06/22 04:58:17;;;;;;;0.40;0.30;;;17.30;99.90;;;;;;4973872;28;20489;-81
2021/06/22 05:00:42;;;;;;;0.40;0.20;;;17.30;99.90;;;;;;4973952;28;20500;-81
2021/06/22 05:03:08;;;;;;;0.40;0.20;;;17.30;99.90;;;;;;4973105;28;20416;-82
2021/06/22 05:05:34;;;;;;;0.40;0.20;;;17.30;99.90;;;;;;4956447;28;20408;-83
2021/06/22 05:08:00;;;;;;;0.40;0.20;;;17.30;99.90;;;;;;4988075;28;20401;-83
2021/06/22 05:10:25;;;;;;;0.40;0.30;;;17.20;99.90;;;;;;4956078;28;20916;-82
2021/06/22 05:12:51;;;;;;;0.40;0.20;;;17.10;99.90;;;;;;4987940;28;20449;-82
2021/06/22 05:15:17;;;;;;;0.40;0.20;;;17.00;99.90;;;;;;4975458;28;20420;-82
2021/06/22 05:17:42;;;;;;;0.40;0.20;;;17.00;99.90;;;;;;4956302;28;20404;-81
2021/06/22 05:20:08;;;;;;;0.40;0.20;;;16.90;99.90;;;;;;4972495;28;20482;-85
2021/06/22 05:22:34;;;;;;;0.40;0.20;;;17.10;99.90;;;;;;4973592;28;20388;-85
2021/06/22 05:25:01;;;;;;;0.40;0.20;;;17.10;99.90;;;;;;4955427;28;20947;-85
2021/06/22 05:27:26;;;;;;;0.40;0.20;;;17.10;99.90;;;;;;4956347;28;20487;-84
2021/06/22 05:29:52;;;;;;;0.40;0.20;;;17.10;99.90;;;;;;4972102;28;20440;-82
2021/06/22 05:32:18;;;;;;;0.40;0.20;;;17.10;99.90;;;;;;4956075;28;20405;-83
2021/06/22 05:34:44;;;;;;;0.40;0.20;;;17.10;99.90;;;;;;4973588;28;20384;-84
2021/06/22 05:37:10;;;;;;;0.40;0.30;;;17.10;99.90;;;;;;4972357;28;20396;-85
2021/06/22 05:39:35;;;;;;;0.40;0.20;;;17.10;99.90;;;;;;4972722;28;20400;-84
2021/06/22 05:42:02;;;;;;;0.40;0.30;;;17.00;99.90;;;;;;4986483;28;20396;-84
2021/06/22 05:44:27;;;;;;;0.40;0.30;;;17.10;99.90;;;;;;4971679;28;20420;-83
2021/06/22 05:46:53;;;;;;;0.40;0.30;;;17.20;99.90;;;;;;4970867;28;20883;-81
2021/06/22 05:49:19;;;;;;;0.40;0.20;;;17.20;99.90;;;;;;4972427;28;20396;-82
2021/06/22 05:51:45;;;;;;;0.40;0.30;;;17.20;99.90;;;;;;4987301;28;20407;-82
2021/06/22 05:54:12;;;;;;;0.40;0.20;;;17.20;99.90;;;;;;4971884;28;20399;-80
2021/06/22 05:56:37;;;;;;;0.40;0.30;;;17.20;99.90;;;;;;4971820;28;20399;-80
2021/06/22 05:59:04;;;;;;;0.40;0.20;;;17.30;99.90;;;;;;4952991;28;20408;-80
2021/06/22 06:01:30;;;;;;;0.70;0.40;;;17.30;99.90;;;;;;4980018;28;20422;-79
2021/06/22 06:03:55;;;;;;;0.40;0.20;;;17.20;99.90;;;;;;4971329;28;20428;-79
2021/06/22 06:06:21;;;;;;;0.40;0.20;;;17.30;99.90;;;;;;4972694;28;20412;-79
2021/06/22 06:08:46;;;;;;;0.40;0.20;;;17.30;99.90;;;;;;4972482;28;20420;-79
2021/06/22 06:11:12;;;;;;;0.40;0.20;;;17.30;99.90;;;;;;4973705;28;20466;-79
2021/06/22 06:13:38;;;;;;;0.40;0.20;;;17.30;99.90;;;;;;4971940;28;20428;-79
2021/06/22 06:16:05;;;;;;;0.40;0.20;;;17.20;99.90;;;;;;4953999;28;20471;-80
2021/06/22 06:18:32;;;;;;;0.40;0.30;;;17.10;99.90;;;;;;4955032;28;20408;-77
2021/06/22 06:20:58;;;;;;;0.40;0.20;;;17.20;99.90;;;;;;4971971;28;20420;-78
2021/06/22 06:23:28;;;;;;;0.40;0.20;;;17.10;99.90;;;;;;4972600;28;20400;-77
2021/06/22 06:25:54;;;;;;;0.40;0.30;;;17.00;99.90;;;;;;4972337;28;20392;-79
2021/06/22 06:28:26;;;;;;;0.40;0.30;;;17.10;99.90;;;;;;4972719;28;20478;-78
2021/06/22 06:30:52;;;;;;;0.40;0.30;;;17.20;99.90;;;;;;4972467;28;20477;-80
2021/06/22 06:33:17;;;;;;;0.40;0.20;;;17.20;99.90;;;;;;4954383;28;20400;-76
2021/06/22 06:35:43;;;;;;;0.40;0.30;;;17.20;99.90;;;;;;4955054;28;20463;-76
2021/06/22 06:38:09;;;;;;;0.40;0.20;;;17.20;99.90;;;;;;4971736;28;20849;-76
2021/06/22 06:40:35;;;;;;;0.40;0.20;;;17.20;99.90;;;;;;4971875;28;20530;-76
2021/06/22 06:43:02;;;;;;;0.40;0.20;;;17.30;99.90;;;;;;4971370;28;20487;-76
2021/06/22 06:45:28;;;;;;;0.40;0.20;;;17.40;99.90;;;;;;4972336;28;20483;-76
2021/06/22 06:47:54;;;;;;;0.40;0.20;;;17.30;99.90;;;;;;4954490;28;20487;-80
2021/06/22 06:50:20;;;;;;;0.40;0.20;;;16.70;99.90;;;;;;4972252;28;20391;-78
2021/06/22 06:52:46;;;;;;;0.40;0.20;;;17.20;99.90;;;;;;4986932;28;20816;-78
2021/06/22 06:55:25;;;;;;;0.40;0.20;;;17.30;99.90;;;;;;4970271;28;20491;-78
2021/06/22 06:58:10;;;;;;;0.40;0.30;;;17.40;99.90;;;;;;4971431;28;20396;-76
2021/06/22 07:00:37;;;;;;;0.40;0.30;;;17.40;99.90;;;;;;4971213;28;20419;-78
2021/06/22 07:03:04;;;;;;;0.40;0.20;;;17.30;99.90;;;;;;4970616;28;20487;-77
2021/06/22 07:05:31;;;;;;;0.40;0.30;;;17.10;99.90;;;;;;4953724;28;20402;-79
2021/06/22 07:07:58;;;;;;;0.40;0.20;;;17.10;99.90;;;;;;4953043;28;20428;-81
2021/06/22 07:10:25;;;;;;;0.40;0.20;;;17.00;99.90;;;;;;4971440;28;20741;-79
2021/06/22 07:12:50;;;;;;;0.40;0.28;;;17.20;99.90;;;;;;4984222;28;20770;-78
2021/06/22 07:15:16;;;;;;;0.40;0.30;;;17.20;99.90;;;;;;4971021;28;20491;-78
2021/06/22 07:17:43;;;;;;;0.40;0.30;;;17.20;99.90;;;;;;4986844;28;20884;-78
2021/06/22 07:20:09;;;;;;;0.40;0.20;;;17.20;99.90;;;;;;4970950;28;20919;-78
2021/06/22 07:22:35;;;;;;;0.40;0.20;;;17.20;99.90;;;;;;4954911;28;20745;-76
2021/06/22 07:25:03;;;;;;;0.40;0.20;;;17.20;99.90;;;;;;4971529;28;20403;-78
2021/06/22 07:27:28;;;;;;;0.40;0.30;;;17.30;99.90;;;;;;4975617;28;20399;-77
2021/06/22 07:29:54;;;;;;;0.40;0.30;;;17.30;99.90;;;;;;4990511;28;20919;-80
2021/06/22 07:32:20;;;;;;;0.40;0.30;;;17.40;99.90;;;;;;4974911;28;20392;-79
2021/06/22 07:34:46;;;;;;;0.40;0.30;;;17.40;99.90;;;;;;4958223;28;20687;-78
2021/06/22 07:37:11;;;;;;;0.40;0.20;;;17.40;99.90;;;;;;4974686;28;20476;-78
2021/06/22 07:39:37;;;;;;;0.40;0.30;;;17.30;99.90;;;;;;4975407;28;20394;-77
2021/06/22 07:42:03;;;;;;;0.40;0.30;;;17.40;99.90;;;;;;4974507;28;20391;-78
2021/06/22 07:44:29;;;;;;;0.40;0.30;;;17.50;99.90;;;;;;4975635;28;20412;-78
2021/06/22 07:46:55;;;;;;;0.40;0.20;;;17.40;99.90;;;;;;4975397;28;20388;-79
2021/06/22 07:49:21;;;;;;;0.40;0.20;;;17.30;99.90;;;;;;4974470;28;20455;-77
2021/06/22 07:51:46;;;;;;;0.40;0.20;;;17.30;99.90;;;;;;4975190;28;20467;-78
2021/06/22 07:54:13;;;;;;;0.40;0.20;;;17.20;99.90;;;;;;4989664;28;20392;-78
2021/06/22 07:56:39;;;;;;;0.40;0.30;;;17.20;99.90;;;;;;4975284;28;20400;-78
2021/06/22 07:59:04;;;;;;;0.40;0.20;;;17.10;99.90;;;;;;4974409;28;20537;-78
2021/06/22 08:01:30;;;;;;;0.40;0.30;;;17.20;99.90;;;;;;4975153;28;20426;-78
2021/06/22 08:03:56;;;;;;;0.40;0.20;;;17.10;99.90;;;;;;4957556;28;20404;-81
2021/06/22 08:06:22;;;;;;;0.40;0.20;;;17.10;99.90;;;;;;4974720;28;20400;-78
2021/06/22 08:08:47;;;;;;;0.40;0.20;;;17.20;99.90;;;;;;4957681;28;20923;-79
2021/06/22 08:11:13;;;;;;;0.40;0.20;;;17.20;99.90;;;;;;4990863;28;20744;-79
2021/06/22 08:13:39;;;;;;;0.40;0.20;;;17.20;99.90;;;;;;4996661;28;20459;-79
2021/06/22 08:16:05;;;;;;;0.40;0.20;;;17.20;99.90;;;;;;4973848;28;20389;-80
2021/06/22 08:18:32;;;;;;;0.40;0.20;;;17.20;99.90;;;;;;4975024;28;20408;-79
2021/06/22 08:20:59;;;;;;;0.40;0.20;;;17.30;99.90;;;;;;4989668;28;20420;-82
2021/06/22 08:23:24;;;;;;;0.40;0.20;;;17.40;99.90;;;;;;4974741;28;20529;-78
2021/06/22 08:25:53;;;;;;;0.40;0.20;;;17.60;99.90;;;;;;4974894;28;20437;-78
2021/06/22 08:28:19;;;;;;;0.40;0.20;;;17.60;99.90;;;;;;4973980;28;20396;-78
2021/06/22 08:30:45;;;;;;;0.40;0.20;;;17.60;99.90;;;;;;4957264;28;20422;-78
2021/06/22 08:33:12;;;;;;;0.40;0.20;;;17.60;99.90;;;;;;4973848;28;21008;-78
2021/06/22 08:35:38;;;;;;;0.40;0.30;;;17.60;99.90;;;;;;4974639;28;20384;-78
2021/06/22 08:38:09;;;;;;;0.40;0.20;;;17.60;99.90;;;;;;4955892;28;20396;-80
2021/06/22 08:40:39;;;;;;;0.40;0.30;;;17.60;99.90;;;;;;4974302;28;20455;-78
2021/06/22 08:43:06;;;;;;;0.40;0.20;;;17.50;99.90;;;;;;4973900;28;20491;-78
2021/06/22 08:45:32;;;;;;;0.40;0.20;;;17.60;99.90;;;;;;4974174;28;20487;-78
2021/06/22 08:47:57;;;;;;;0.40;0.20;;;17.40;99.90;;;;;;4974179;28;20483;-78
2021/06/22 08:50:24;;;;;;;0.40;0.20;;;17.40;99.90;;;;;;4988692;28;20400;-78
2021/06/22 08:52:50;;;;;;;0.40;0.20;;;17.40;99.90;;;;;;4974043;28;20455;-78
2021/06/22 08:55:26;;;;;;;0.40;0.20;;;17.50;99.90;;;;;;4955844;28;20487;-78
2021/06/22 08:57:54;;;;;;;0.40;0.20;;;17.60;99.90;;;;;;4988941;28;20412;-78
2021/06/22 09:00:20;;;;;;;0.40;0.20;;;17.60;99.90;;;;;;4987997;28;20428;-79
2021/06/22 09:02:57;;;;;;;0.40;0.30;;;17.60;99.90;;;;;;4973660;28;20427;-77
2021/06/22 09:05:25;;;;;;;0.40;0.20;;;17.60;99.90;;;;;;4955736;28;20396;-78
2021/06/22 09:07:53;;;;;;;0.40;0.20;;;17.60;99.90;;;;;;4974021;28;20412;-81
2021/06/22 09:10:28;;;;;;;0.40;0.20;;;17.60;99.90;;;;;;4973236;28;20419;-78
2021/06/22 09:12:54;;;;;;;0.40;0.30;;;17.60;99.90;;;;;;4992903;28;20419;-79
2021/06/22 09:15:26;;;;;;;0.40;0.30;;;17.60;99.90;;;;;;4955240;28;20426;-78
2021/06/22 09:17:52;;;;;;;0.40;0.30;;;17.50;99.90;;;;;;4973818;28;20499;-79
2021/06/22 09:20:37;;;;;;;0.40;0.20;;;17.40;99.90;;;;;;4972702;28;20482;-78
2021/06/22 09:23:11;;;;;;;0.40;0.20;;;17.40;99.90;;;;;;4973301;28;20443;-81
2021/06/22 09:25:36;;;;;;;0.40;0.20;;;17.40;99.90;;;;;;4973822;28;20471;-80
2021/06/22 09:28:03;;;;;;;0.40;0.30;;;17.50;99.90;;;;;;4973096;28;20831;-82
2021/06/22 09:30:51;;;;;;;0.40;0.25;;;17.70;99.90;;;;;;4988043;28;20404;-80
2021/06/22 09:33:32;;;;;;;0.40;0.30;;;17.60;99.90;;;;;;4972882;28;20745;-80
2021/06/22 09:36:05;;;;;;;0.40;0.20;;;17.70;99.90;;;;;;4973596;28;20861;-81
2021/06/22 09:38:39;;;;;;;0.40;0.20;;;17.70;99.90;;;;;;4973671;28;20392;-80
2021/06/22 09:41:10;;;;;;;0.40;0.30;;;17.90;99.90;;;;;;4972709;28;20428;-86
2021/06/22 09:43:41;;;;;;;0.40;0.28;;;17.70;99.90;;;;;;4973579;28;20412;-80
2021/06/22 09:46:08;;;;;;;0.40;0.30;;;17.70;99.90;;;;;;4972723;28;20392;-84
2021/06/22 09:48:45;;;;;;;0.40;0.20;;;17.70;99.90;;;;;;4972163;28;20888;-80
2021/06/22 09:51:11;;;;;;;0.40;0.20;;;17.50;99.90;;;;;;4972328;28;20449;-81
2021/06/22 09:53:37;;;;;;;0.40;0.30;;;17.60;99.90;;;;;;4973048;28;20800;-81
2021/06/22 09:56:05;;;;;;;0.40;0.30;;;17.60;99.90;;;;;;4973314;28;20463;-80
2021/06/22 09:58:45;;;;;;;0.40;0.20;;;17.60;99.90;;;;;;4972881;28;20412;-80
2021/06/22 10:01:28;;;;;;;0.40;0.20;;;17.50;99.90;;;;;;4972235;28;20424;-80
2021/06/22 10:03:55;;;;;;;0.40;0.20;;;17.60;99.90;;;;;;4987442;28;20404;-80
2021/06/22 10:06:21;;;;;;;0.40;0.20;;;17.70;99.90;;;;;;4972093;28;20392;-81
2021/06/22 10:08:51;;;;;;;0.40;0.20;;;17.60;99.90;;;;;;4972647;28;20973;-80
2021/06/22 10:11:30;;;;;;;0.40;0.30;;;17.60;99.90;;;;;;4974412;28;20408;-81
2021/06/22 10:13:56;;;;;;;0.40;0.30;;;17.70;99.90;;;;;;5003865;28;20436;-79
2021/06/22 10:16:23;;;;;;;0.40;0.20;;;18.00;99.90;;;;;;4987055;28;20388;-79
2021/06/22 10:18:50;;;;;;;0.40;0.30;;;18.10;99.90;;;;;;4972915;28;20408;-80
2021/06/22 10:21:17;;;;;;;0.40;0.30;;;18.50;99.90;;;;;;4954693;28;20427;-79
2021/06/22 10:23:43;;;;;;;0.40;0.30;;;18.60;99.90;;;;;;4955056;28;20909;-80
2021/06/22 10:26:09;;;;;;;0.40;0.30;;;18.80;99.90;;;;;;4954741;28;20989;-83
2021/06/22 10:28:36;;;;;;;0.40;0.20;;;18.90;99.90;;;;;;4979769;28;20474;-80
2021/06/22 10:31:03;;;;;;;0.40;0.20;;;19.30;99.90;;;;;;4980406;28;20399;-79
2021/06/22 10:33:29;;;;;;;0.40;0.30;;;19.40;99.90;;;;;;4980580;28;20416;-79
2021/06/22 10:35:55;;;;;;;0.40;0.30;;;19.30;99.90;;;;;;4981327;28;20419;-81
2021/06/22 10:38:22;;;;;;;0.40;0.20;;;19.60;99.90;;;;;;4979233;28;20508;-78
2021/06/22 10:40:56;;;;;;;0.40;0.20;;;19.80;99.90;;;;;;4997218;28;20414;-78
2021/06/22 10:43:39;;;;;;;0.40;0.30;;;20.00;99.90;;;;;;4984718;28;20878;-78
2021/06/22 10:46:13;;;;;;;0.40;0.30;;;20.10;99.90;;;;;;4981823;28;20396;-79
2021/06/22 10:48:44;;;;;;;0.40;0.30;;;20.00;99.90;;;;;;4972200;28;20883;-78
2021/06/22 10:51:32;;;;;;;0.40;0.20;;;19.90;99.90;;;;;;4971248;28;20900;-84
2021/06/22 10:53:59;;;;;;;0.40;0.20;;;19.80;99.90;;;;;;4954190;28;21794;-79
2021/06/22 10:56:28;;;;;;;0.40;0.30;;;19.70;99.90;;;;;;4953601;28;20403;-78
2021/06/22 10:59:11;;;;;;;0.40;0.20;;;19.70;99.90;;;;;;4972207;28;20475;-77
2021/06/22 11:01:52;;;;;;;0.40;0.30;;;19.80;99.90;;;;;;4986550;28;20447;-78
2021/06/22 11:04:19;;;;;;;0.40;0.30;;;19.70;99.90;;;;;;4986021;28;20970;-79
2021/06/22 11:07:01;;;;;;;0.40;0.30;;;20.00;99.90;;;;;;4954701;28;20427;-78
2021/06/22 11:09:27;;;;;;;0.40;0.20;;;20.40;99.90;;;;;;4985934;28;20462;-80
2021/06/22 11:12:17;;;;;;;0.40;0.30;;;20.70;99.90;;;;;;4961665;28;20402;-79
2021/06/22 11:15:09;;;;;;;0.40;0.30;;;20.50;99.90;;;;;;4980143;28;20502;-78
2021/06/22 11:17:41;;;;;;;0.40;0.22;;;20.70;99.90;;;;;;4967299;28;20400;-76
2021/06/22 11:20:13;;;;;;;0.40;0.30;;;20.80;99.90;;;;;;4971821;28;20765;-79
2021/06/22 11:22:58;;;;;;;0.40;0.30;;;21.00;99.90;;;;;;4971896;28;20404;-76
2021/06/22 11:25:43;;;;;;;0.40;0.20;;;20.90;99.90;;;;;;4970840;28;20496;-73
2021/06/22 11:28:09;;;;;;;0.40;0.20;;;20.90;99.90;;;;;;4971767;28;20400;-76
2021/06/22 11:30:50;;;;;;;0.40;0.30;;;20.80;99.90;;;;;;4971365;28;20396;-74
2021/06/22 11:33:28;;;;;;;0.40;0.20;;;20.70;99.90;;;;;;4985686;28;20427;-74
2021/06/22 11:36:16;;;;;;;0.40;0.30;;;20.90;99.90;;;;;;4971398;28;20475;-74
2021/06/22 11:39:18;;;;;;;0.40;0.30;;;21.20;99.90;;;;;;4971489;28;20407;-75
2021/06/22 11:42:11;;;;;;;0.40;0.30;;;21.20;99.90;;;;;;4954527;28;20416;-75
2021/06/22 11:44:38;;;;;;;0.40;0.20;;;21.50;99.90;;;;;;4971704;28;20503;-75
2021/06/22 11:47:05;;;;;;;0.40;0.20;;;22.00;99.90;;;;;;4986454;28;20931;-75
2021/06/22 11:49:41;;;;;;;0.40;0.20;;;22.40;99.90;;;;;;4970794;28;20396;-75
2021/06/22 11:52:11;;;;;;;0.40;0.20;;;22.70;99.90;;;;;;4973583;28;20512;-76
2021/06/22 11:54:55;;;;;;;0.40;0.20;;;23.00;99.90;;;;;;4982697;28;20453;-76
2021/06/22 11:57:31;;;;;;;0.40;0.20;;;22.40;99.90;;;;;;4969634;28;20892;-75
2021/06/22 12:00:23;;;;;;;0.40;0.30;;;22.30;99.90;;;;;;4971512;28;20860;-75
2021/06/22 12:02:54;;;;;;;0.40;0.30;;;22.60;99.90;;;;;;4971272;28;20494;-76
2021/06/22 12:05:22;;;;;;;0.40;0.20;;;23.10;99.90;;;;;;4951547;29;20393;-76
2021/06/22 12:07:53;;;;;;;0.40;0.30;;;22.70;99.90;;;;;;4962885;28;20402;-76
2021/06/22 12:10:22;;;;;;;0.40;0.30;;;22.00;99.90;;;;;;4970734;28;20487;-75
2021/06/22 12:12:49;;;;;;;0.40;0.30;;;21.70;99.90;;;;;;4987737;28;20386;-76
2021/06/22 12:15:28;;;;;;;0.40;0.20;;;21.80;99.90;;;;;;4990998;28;20486;-77
2021/06/22 12:17:54;;;;;;;0.40;0.30;;;21.40;99.90;;;;;;4974782;28;20396;-75
2021/06/22 12:20:24;;;;;;;0.40;0.20;;;21.50;99.90;;;;;;4973835;28;20424;-76
2021/06/22 12:22:51;;;;;;;0.40;0.30;;;21.30;99.90;;;;;;4975057;28;20416;-75
2021/06/22 12:25:24;;;;;;;0.40;0.30;;;21.10;99.90;;;;;;4973534;28;20940;-76
2021/06/22 12:27:57;;;;;;;0.40;0.20;;;21.00;99.90;;;;;;4957162;28;20412;-75
2021/06/22 12:30:34;;;;;;;0.40;0.20;;;21.00;99.90;;;;;;4978380;28;20396;-76
2021/06/22 12:33:30;;;;;;;0.40;0.30;;;20.90;99.90;;;;;;4974613;28;20752;-76
2021/06/22 12:36:05;;;;;;;0.40;0.20;;;21.10;99.90;;;;;;4940260;28;20416;-75
2021/06/22 12:38:31;;;;;;;0.40;0.30;;;21.10;99.90;;;;;;4973519;28;20400;-75
2021/06/22 12:41:02;;;;;;;0.40;0.30;;;21.10;99.90;;;;;;4974410;28;20481;-75
2021/06/22 12:43:50;;;;;;;0.40;0.20;;;21.20;99.90;;;;;;4985608;28;20406;-76
2021/06/22 12:46:28;;;;;;;0.40;0.20;;;21.10;99.90;;;;;;4985812;28;20498;-77
2021/06/22 12:49:10;;;;;;;0.40;0.20;;;21.10;99.90;;;;;;4988488;28;20402;-76
2021/06/22 12:51:49;;;;;;;0.40;0.30;;;21.20;99.90;;;;;;4964266;28;20408;-75
2021/06/22 12:54:15;;;;;;;0.40;0.30;;;21.40;99.90;;;;;;4987189;28;20432;-77